createdAt,value
2022-10-16T00:01:00.315Z,13.80
2022-10-16T00:03:30.514Z,13.90
2022-10-16T00:06:01.038Z,14.00
2022-10-16T00:08:29.092Z,14.00
2022-10-16T00:11:00.716Z,14.00
2022-10-16T00:13:28.670Z,14.00
2022-10-16T00:15:57.527Z,14.00
2022-10-16T00:18:25.550Z,14.00
2022-10-16T00:23:22.878Z,13.90
2022-10-16T00:25:56.970Z,13.90
2022-10-16T00:28:25.263Z,13.90
2022-10-16T00:30:53.672Z,13.80
2022-10-16T00:33:21.852Z,13.80
2022-10-16T00:35:50.112Z,13.80
2022-10-16T00:38:19.576Z,13.70
2022-10-16T00:40:47.568Z,13.70
2022-10-16T00:43:16.432Z,13.60
2022-10-16T00:45:44.326Z,13.60
2022-10-16T00:48:14.670Z,13.60
2022-10-16T00:50:44.950Z,13.60
2022-10-16T00:53:14.068Z,13.50
2022-10-16T00:55:43.487Z,13.50
2022-10-16T00:58:11.716Z,13.50
2022-10-16T01:00:39.806Z,13.50
2022-10-16T01:03:22.909Z,13.40
2022-10-16T01:05:54.747Z,13.40
2022-10-16T01:08:29.457Z,13.40
2022-10-16T01:10:59.851Z,13.40
2022-10-16T01:13:29.671Z,13.40
2022-10-16T01:16:01.488Z,13.40
2022-10-16T01:18:31.531Z,13.30
2022-10-16T01:21:01.869Z,13.30
2022-10-16T01:23:32.554Z,13.30
2022-10-16T01:26:19.551Z,13.20
2022-10-16T01:28:52.141Z,13.30
2022-10-16T01:31:21.075Z,13.30
2022-10-16T01:33:51.688Z,13.30
2022-10-16T01:36:23.349Z,13.40
2022-10-16T01:38:54.004Z,13.40
2022-10-16T01:41:23.542Z,13.40
2022-10-16T01:43:55.724Z,13.30
2022-10-16T01:46:24.571Z,13.30
2022-10-16T01:48:53.414Z,13.30
2022-10-16T01:51:22.006Z,13.30
2022-10-16T01:53:52.233Z,13.30
2022-10-16T01:56:21.544Z,13.30
2022-10-16T01:58:51.105Z,13.20
2022-10-16T02:01:21.471Z,13.20
2022-10-16T02:03:52.331Z,13.20
2022-10-16T02:06:20.760Z,13.10
2022-10-16T02:08:48.945Z,13.10
2022-10-16T02:11:16.894Z,13.10
2022-10-16T02:13:47.220Z,13.10
2022-10-16T02:16:15.499Z,13.00
2022-10-16T02:18:46.034Z,13.00
2022-10-16T02:21:17.393Z,13.00
2022-10-16T02:23:48.070Z,13.00
2022-10-16T02:26:20.051Z,12.90
2022-10-16T02:31:27.352Z,13.00
2022-10-16T02:33:57.092Z,13.10
2022-10-16T02:36:25.295Z,13.20
2022-10-16T02:38:53.716Z,13.30
2022-10-16T02:41:22.780Z,13.30
2022-10-16T02:43:51.025Z,13.30
2022-10-16T02:46:19.256Z,13.20
2022-10-16T02:48:47.209Z,13.20
2022-10-16T02:51:16.951Z,13.30
2022-10-16T02:53:44.906Z,13.30
2022-10-16T02:56:13.098Z,13.30
2022-10-16T02:58:41.131Z,13.30
2022-10-16T03:01:09.143Z,13.30
2022-10-16T03:03:37.055Z,13.40
2022-10-16T03:06:05.108Z,13.40
2022-10-16T03:08:34.547Z,13.50
2022-10-16T03:11:03.040Z,13.60
2022-10-16T03:13:30.931Z,13.60
2022-10-16T03:15:58.814Z,13.60
2022-10-16T03:18:26.764Z,13.60
2022-10-16T03:20:54.658Z,13.70
2022-10-16T03:23:22.609Z,13.70
2022-10-16T03:25:52.020Z,13.80
2022-10-16T03:28:20.221Z,13.70
2022-10-16T03:30:48.227Z,13.80
2022-10-16T03:33:16.323Z,13.80
2022-10-16T03:35:44.179Z,13.70
2022-10-16T03:38:12.065Z,13.70
2022-10-16T03:40:40.066Z,13.70
2022-10-16T03:43:09.631Z,13.70
2022-10-16T03:45:37.763Z,13.70
2022-10-16T03:48:05.943Z,13.70
2022-10-16T03:50:33.816Z,13.70
2022-10-16T03:53:01.681Z,13.70
2022-10-16T03:55:29.618Z,13.70
2022-10-16T03:57:57.522Z,13.70
2022-10-16T04:00:27.047Z,13.70
2022-10-16T04:02:55.169Z,13.70
2022-10-16T04:05:23.088Z,13.70
2022-10-16T04:07:51.011Z,13.70
2022-10-16T04:10:18.959Z,13.70
2022-10-16T04:12:47.101Z,13.70
2022-10-16T04:15:15.298Z,13.70
2022-10-16T04:17:44.886Z,13.80
2022-10-16T04:20:13.026Z,13.80
2022-10-16T04:22:41.010Z,13.90
2022-10-16T04:25:09.284Z,13.90
2022-10-16T04:27:38.344Z,13.90
2022-10-16T04:30:08.431Z,14.00
2022-10-16T04:32:36.452Z,14.00
2022-10-16T04:35:06.216Z,14.00
2022-10-16T04:37:34.175Z,14.00
2022-10-16T04:40:02.358Z,14.00
2022-10-16T04:42:30.369Z,14.00
2022-10-16T04:44:58.323Z,13.90
2022-10-16T04:47:26.380Z,13.90
2022-10-16T04:49:54.699Z,13.80
2022-10-16T04:52:25.791Z,13.80
2022-10-16T04:54:55.039Z,13.70
2022-10-16T04:57:23.334Z,13.70
2022-10-16T04:59:51.386Z,13.80
2022-10-16T05:02:19.297Z,13.70
2022-10-16T05:04:47.216Z,13.70
2022-10-16T05:07:15.228Z,13.60
2022-10-16T05:09:45.130Z,13.60
2022-10-16T05:12:13.188Z,13.70
2022-10-16T05:14:41.150Z,13.60
2022-10-16T05:17:09.188Z,13.60
2022-10-16T05:19:37.098Z,13.60
2022-10-16T05:22:05.193Z,13.60
2022-10-16T05:24:33.088Z,13.50
2022-10-16T05:27:02.680Z,13.50
2022-10-16T05:29:30.673Z,13.60
2022-10-16T05:31:58.635Z,13.50
2022-10-16T05:34:26.639Z,13.50
2022-10-16T05:36:54.755Z,13.50
2022-10-16T05:39:22.915Z,13.50
2022-10-16T05:41:51.760Z,13.50
2022-10-16T05:44:21.719Z,13.60
2022-10-16T05:46:50.049Z,13.50
2022-10-16T05:49:18.120Z,13.50
2022-10-16T05:51:46.152Z,13.50
2022-10-16T05:54:14.026Z,13.50
2022-10-16T05:56:41.906Z,13.40
2022-10-16T05:59:09.924Z,13.50
2022-10-16T06:01:39.315Z,13.40
2022-10-16T06:04:07.318Z,13.50
2022-10-16T06:06:37.363Z,13.50
2022-10-16T06:09:05.729Z,13.50
2022-10-16T06:11:34.358Z,13.60
2022-10-16T06:14:03.883Z,13.60
2022-10-16T06:16:31.830Z,13.60
2022-10-16T06:19:01.475Z,13.60
2022-10-16T06:21:30.396Z,13.70
2022-10-16T06:23:58.785Z,13.70
2022-10-16T06:26:30.387Z,13.70
2022-10-16T06:28:59.133Z,13.70
2022-10-16T06:31:28.687Z,13.80
2022-10-16T06:33:57.210Z,13.80
2022-10-16T06:36:27.046Z,13.80
2022-10-16T06:38:55.134Z,13.80
2022-10-16T06:41:24.121Z,13.80
2022-10-16T06:43:53.189Z,13.80
2022-10-16T06:46:22.697Z,13.90
2022-10-16T06:48:50.863Z,13.90
2022-10-16T06:51:19.310Z,13.90
2022-10-16T06:54:06.371Z,14.00
2022-10-16T06:56:34.886Z,14.10
2022-10-16T06:59:06.331Z,14.20
2022-10-16T07:01:34.623Z,14.40
2022-10-16T07:04:05.743Z,14.60
2022-10-16T07:06:34.387Z,14.80
2022-10-16T07:09:04.883Z,15.00
2022-10-16T07:11:32.970Z,15.20
2022-10-16T07:14:01.205Z,15.30
2022-10-16T07:16:30.154Z,15.30
2022-10-16T07:19:00.507Z,15.30
2022-10-16T07:21:30.145Z,15.20
2022-10-16T07:24:06.993Z,15.30
2022-10-16T07:26:36.375Z,15.40
2022-10-16T07:29:04.954Z,15.60
2022-10-16T07:31:33.385Z,16.10
2022-10-16T07:34:02.075Z,16.80
2022-10-16T07:36:30.331Z,17.20
2022-10-16T07:39:01.496Z,17.40
2022-10-16T07:41:31.623Z,17.40
2022-10-16T07:44:01.324Z,17.20
2022-10-16T07:46:32.722Z,17.20
2022-10-16T07:49:00.700Z,17.60
2022-10-16T07:51:29.101Z,17.70
2022-10-16T07:53:57.310Z,17.60
2022-10-16T07:56:25.810Z,17.50
2022-10-16T07:58:55.361Z,17.40
2022-10-16T08:01:23.462Z,17.80
2022-10-16T08:03:53.085Z,19.00
2022-10-16T08:06:25.279Z,20.40
2022-10-16T08:08:55.902Z,20.70
2022-10-16T08:11:24.432Z,20.10
2022-10-16T08:13:52.509Z,19.50
2022-10-16T08:16:22.249Z,19.00
2022-10-16T08:18:52.459Z,18.80
2022-10-16T08:21:21.964Z,18.70
2022-10-16T08:23:54.636Z,18.50
2022-10-16T08:26:29.450Z,18.40
2022-10-16T08:28:57.646Z,18.40
2022-10-16T08:31:29.352Z,18.40
2022-10-16T08:33:59.464Z,18.40
2022-10-16T08:36:27.639Z,18.40
2022-10-16T08:38:55.765Z,18.50
2022-10-16T08:41:32.013Z,18.50
2022-10-16T08:44:09.608Z,18.40
2022-10-16T08:46:49.747Z,18.20
2022-10-16T08:49:19.098Z,18.20
2022-10-16T08:51:47.640Z,18.40
2022-10-16T08:54:22.333Z,19.10
2022-10-16T08:56:50.729Z,19.60
2022-10-16T08:59:19.307Z,19.80
2022-10-16T09:01:51.586Z,19.70
2022-10-16T09:04:40.627Z,19.30
2022-10-16T09:07:12.214Z,19.00
2022-10-16T09:09:48.072Z,18.70
2022-10-16T09:12:19.626Z,18.50
2022-10-16T09:14:55.692Z,18.40
2022-10-16T09:17:39.551Z,18.20
2022-10-16T09:20:15.968Z,18.10
2022-10-16T09:22:44.030Z,18.00
2022-10-16T09:25:13.619Z,18.00
2022-10-16T09:27:41.711Z,18.00
2022-10-16T09:30:13.841Z,18.10
2022-10-16T09:32:43.511Z,18.10
2022-10-16T09:35:15.340Z,18.20
2022-10-16T09:37:44.627Z,18.30
2022-10-16T09:40:15.201Z,18.50
2022-10-16T09:42:43.266Z,18.60
2022-10-16T09:45:22.747Z,19.10
2022-10-16T09:47:54.128Z,19.50
2022-10-16T09:50:27.615Z,19.60
2022-10-16T09:53:05.765Z,19.40
2022-10-16T09:55:33.923Z,19.70
2022-10-16T09:58:02.036Z,20.50
2022-10-16T10:00:36.800Z,21.30
2022-10-16T10:03:12.706Z,21.90
2022-10-16T10:05:41.576Z,22.40
2022-10-16T10:08:17.658Z,22.80
2022-10-16T10:10:45.766Z,22.30
2022-10-16T10:13:19.518Z,21.70
2022-10-16T10:15:47.551Z,21.60
2022-10-16T10:18:22.794Z,21.60
2022-10-16T10:20:59.759Z,21.40
2022-10-16T10:23:29.086Z,21.10
2022-10-16T10:26:00.351Z,20.80
2022-10-16T10:28:35.373Z,20.60
2022-10-16T10:31:05.697Z,20.90
2022-10-16T10:33:39.850Z,20.80
2022-10-16T10:36:14.428Z,20.60
2022-10-16T10:38:45.890Z,20.70
2022-10-16T10:41:26.507Z,20.80
2022-10-16T10:44:08.710Z,21.00
2022-10-16T10:46:40.914Z,21.00
2022-10-16T10:49:21.856Z,20.70
2022-10-16T10:51:56.068Z,20.30
2022-10-16T10:54:27.508Z,20.10
2022-10-16T10:57:00.147Z,20.00
2022-10-16T10:59:42.377Z,20.00
2022-10-16T11:02:15.593Z,19.80
2022-10-16T11:04:57.560Z,19.70
2022-10-16T11:07:27.771Z,19.60
2022-10-16T11:09:56.987Z,19.70
2022-10-16T11:12:26.962Z,20.00
2022-10-16T11:14:58.391Z,19.90
2022-10-16T11:17:29.763Z,19.80
2022-10-16T11:20:00.919Z,19.90
2022-10-16T11:22:32.757Z,20.20
2022-10-16T11:25:03.965Z,20.40
2022-10-16T11:27:36.313Z,20.60
2022-10-16T11:30:06.308Z,20.90
2022-10-16T11:32:36.125Z,21.10
2022-10-16T11:35:10.963Z,20.90
2022-10-16T11:37:42.516Z,20.50
2022-10-16T11:40:18.705Z,20.40
2022-10-16T11:42:48.952Z,20.50
2022-10-16T11:45:25.580Z,20.90
2022-10-16T11:48:00.301Z,21.20
2022-10-16T11:50:33.318Z,21.40
2022-10-16T11:53:05.432Z,21.70
2022-10-16T11:55:41.812Z,21.60
2022-10-16T11:58:17.756Z,21.40
2022-10-16T12:00:48.532Z,21.30
2022-10-16T12:03:20.287Z,21.30
2022-10-16T12:06:06.278Z,21.30
2022-10-16T12:08:37.346Z,21.30
2022-10-16T12:11:09.954Z,21.40
2022-10-16T12:13:41.903Z,21.50
2022-10-16T12:16:22.595Z,21.50
2022-10-16T12:18:51.400Z,21.50
2022-10-16T12:21:22.306Z,21.70
2022-10-16T12:23:53.503Z,21.90
2022-10-16T12:26:28.596Z,21.70
2022-10-16T12:28:57.383Z,21.50
2022-10-16T12:31:25.671Z,21.50
2022-10-16T12:33:57.881Z,21.40
2022-10-16T12:36:29.698Z,21.30
2022-10-16T12:38:59.618Z,21.10
2022-10-16T12:41:28.936Z,21.10
2022-10-16T12:43:57.501Z,21.10
2022-10-16T12:46:35.443Z,21.00
2022-10-16T12:49:22.375Z,20.90
2022-10-16T12:51:50.308Z,20.90
2022-10-16T12:54:20.861Z,21.00
2022-10-16T12:56:56.970Z,21.10
2022-10-16T12:59:30.667Z,21.00
2022-10-16T13:02:11.163Z,21.00
2022-10-16T13:04:49.310Z,21.10
2022-10-16T13:07:31.507Z,21.20
2022-10-16T13:10:05.449Z,21.30
2022-10-16T13:12:43.248Z,21.30
2022-10-16T13:15:26.046Z,21.30
2022-10-16T13:17:57.210Z,21.30
2022-10-16T13:20:29.688Z,21.30
2022-10-16T13:23:03.246Z,21.30
2022-10-16T13:25:35.931Z,21.20
2022-10-16T13:28:04.619Z,21.00
2022-10-16T13:30:33.896Z,20.80
2022-10-16T13:33:03.144Z,20.70
2022-10-16T13:35:32.195Z,20.60
2022-10-16T13:38:15.115Z,20.50
2022-10-16T13:40:54.652Z,20.50
2022-10-16T13:43:24.393Z,20.40
2022-10-16T13:45:56.832Z,20.30
2022-10-16T13:48:25.040Z,20.20
2022-10-16T13:51:07.226Z,20.00
2022-10-16T13:53:36.692Z,19.90
2022-10-16T13:56:07.585Z,19.80
2022-10-16T13:58:35.641Z,19.80
2022-10-16T14:01:06.558Z,19.70
2022-10-16T14:03:36.667Z,19.70
2022-10-16T14:06:05.930Z,19.60
2022-10-16T14:08:34.168Z,19.60
2022-10-16T14:11:03.494Z,19.60
2022-10-16T14:13:34.656Z,19.50
2022-10-16T14:16:05.178Z,19.50
2022-10-16T14:18:33.540Z,19.40
2022-10-16T14:21:08.067Z,19.30
2022-10-16T14:23:38.391Z,19.30
2022-10-16T14:26:19.682Z,19.20
2022-10-16T14:28:49.745Z,19.10
2022-10-16T14:31:25.671Z,19.10
2022-10-16T14:33:53.710Z,19.00
2022-10-16T14:36:22.911Z,18.90
2022-10-16T14:38:51.934Z,18.80
2022-10-16T14:41:22.757Z,18.80
2022-10-16T14:43:57.048Z,18.70
2022-10-16T14:46:30.765Z,18.70
2022-10-16T14:49:01.039Z,18.60
2022-10-16T14:51:29.382Z,18.40
2022-10-16T14:54:00.143Z,18.30
2022-10-16T14:56:33.120Z,18.10
2022-10-16T14:59:03.362Z,18.00
2022-10-16T15:01:31.453Z,17.90
2022-10-16T15:04:02.130Z,17.80
2022-10-16T15:06:30.273Z,17.70
2022-10-16T15:08:58.226Z,17.70
2022-10-16T15:11:26.410Z,17.60
2022-10-16T15:13:54.833Z,17.50
2022-10-16T15:16:24.292Z,17.50
2022-10-16T15:18:54.322Z,17.50
2022-10-16T15:21:24.927Z,17.30
2022-10-16T15:23:52.819Z,17.30
2022-10-16T15:26:20.930Z,17.20
2022-10-16T15:28:48.875Z,17.10
2022-10-16T15:31:17.195Z,17.00
2022-10-16T15:33:52.443Z,16.90
2022-10-16T15:36:26.100Z,16.80
2022-10-16T15:38:54.655Z,16.70
2022-10-16T15:41:22.910Z,16.60
2022-10-16T15:43:53.747Z,16.60
2022-10-16T15:46:22.491Z,16.50
2022-10-16T15:48:52.865Z,16.40
2022-10-16T15:51:20.864Z,16.30
2022-10-16T15:53:49.295Z,16.30
2022-10-16T15:56:17.319Z,16.20
2022-10-16T15:58:45.927Z,16.10
2022-10-16T16:01:14.423Z,16.00
2022-10-16T16:03:42.659Z,16.00
2022-10-16T16:06:15.741Z,15.90
2022-10-16T16:08:44.049Z,15.90
2022-10-16T16:11:12.743Z,15.80
2022-10-16T16:13:41.245Z,15.80
2022-10-16T16:16:09.740Z,15.80
2022-10-16T16:18:41.144Z,15.70
2022-10-16T16:21:10.115Z,15.70
2022-10-16T16:23:39.774Z,15.60
2022-10-16T16:26:08.603Z,15.60
2022-10-16T16:28:36.825Z,15.60
2022-10-16T16:31:05.011Z,15.50
2022-10-16T16:33:36.000Z,15.50
2022-10-16T16:36:08.383Z,15.50
2022-10-16T16:38:41.181Z,15.50
2022-10-16T16:41:15.138Z,15.50
2022-10-16T16:43:43.265Z,15.50
2022-10-16T16:46:11.509Z,15.40
2022-10-16T16:48:39.777Z,15.30
2022-10-16T16:51:08.323Z,15.20
2022-10-16T16:53:39.248Z,15.10
2022-10-16T16:56:09.080Z,15.10
2022-10-16T16:58:37.126Z,15.10
2022-10-16T17:01:21.604Z,15.10
2022-10-16T17:03:51.633Z,15.20
2022-10-16T17:06:21.189Z,15.40
2022-10-16T17:08:50.076Z,15.30
2022-10-16T17:11:20.536Z,15.20
2022-10-16T17:13:52.480Z,15.00
2022-10-16T17:16:23.708Z,14.90
2022-10-16T17:18:52.520Z,14.90
2022-10-16T17:21:20.715Z,14.90
2022-10-16T17:23:48.701Z,14.90
2022-10-16T17:26:17.608Z,14.70
2022-10-16T17:28:54.548Z,14.60
2022-10-16T17:31:29.819Z,14.50
2022-10-16T17:33:59.075Z,14.40
2022-10-16T17:36:29.567Z,14.20
2022-10-16T17:39:00.406Z,14.10
2022-10-16T17:41:28.507Z,13.90
2022-10-16T17:43:57.995Z,13.80
2022-10-16T17:46:38.335Z,13.80
2022-10-16T17:49:10.523Z,13.70
2022-10-16T17:51:50.760Z,13.60
2022-10-16T17:54:18.755Z,13.50
2022-10-16T17:56:47.856Z,13.50
2022-10-16T17:59:17.329Z,13.40
2022-10-16T18:01:51.178Z,13.30
2022-10-16T18:04:31.063Z,13.20
2022-10-16T18:07:00.524Z,13.10
2022-10-16T18:09:31.754Z,13.00
2022-10-16T18:12:06.591Z,13.00
2022-10-16T18:14:42.307Z,13.00
2022-10-16T18:17:10.611Z,12.90
2022-10-16T18:19:38.633Z,12.90
2022-10-16T18:22:12.396Z,12.80
2022-10-16T18:24:40.444Z,12.70
2022-10-16T18:27:08.390Z,12.70
2022-10-16T18:29:43.806Z,12.60
2022-10-16T18:32:17.863Z,12.60
2022-10-16T18:34:45.931Z,12.50
2022-10-16T18:37:14.320Z,12.50
2022-10-16T18:39:42.248Z,12.50
2022-10-16T18:42:10.322Z,12.50
2022-10-16T18:44:40.986Z,12.50
2022-10-16T18:47:10.392Z,12.60
2022-10-16T18:49:38.520Z,12.60
2022-10-16T18:52:09.438Z,12.60
2022-10-16T18:54:40.852Z,12.50
2022-10-16T18:57:08.767Z,12.50
2022-10-16T18:59:39.940Z,12.50
2022-10-16T19:02:07.793Z,12.40
2022-10-16T19:04:37.145Z,12.40
2022-10-16T19:07:08.930Z,12.40
2022-10-16T19:09:38.048Z,12.40
2022-10-16T19:12:07.795Z,12.40
2022-10-16T19:14:36.717Z,12.40
2022-10-16T19:17:04.810Z,12.30
2022-10-16T19:19:32.768Z,12.30
2022-10-16T19:22:14.602Z,12.20
2022-10-16T19:24:43.809Z,12.10
2022-10-16T19:27:11.864Z,12.10
2022-10-16T19:29:40.024Z,12.10
2022-10-16T19:32:08.542Z,12.10
2022-10-16T19:34:36.692Z,12.20
2022-10-16T19:37:15.150Z,12.10
2022-10-16T19:39:43.357Z,12.10
2022-10-16T19:42:11.633Z,12.10
2022-10-16T19:44:39.822Z,12.00
2022-10-16T19:47:08.085Z,12.00
2022-10-16T19:49:36.276Z,12.00
2022-10-16T19:52:04.432Z,12.10
2022-10-16T19:54:35.874Z,12.10
2022-10-16T19:57:04.007Z,12.10
2022-10-16T19:59:32.159Z,12.10
2022-10-16T20:02:03.325Z,12.20
2022-10-16T20:04:31.455Z,12.10
2022-10-16T20:06:59.469Z,12.10
2022-10-16T20:09:27.762Z,12.10
2022-10-16T20:11:57.168Z,12.20
2022-10-16T20:14:25.307Z,12.30
2022-10-16T20:16:54.187Z,12.30
2022-10-16T20:19:22.447Z,12.30
2022-10-16T20:21:50.693Z,12.30
2022-10-16T20:24:19.075Z,12.30
2022-10-16T20:26:47.234Z,12.40
2022-10-16T20:29:16.676Z,12.40
2022-10-16T20:31:50.500Z,12.30
2022-10-16T20:34:18.832Z,12.20
2022-10-16T20:36:46.860Z,12.20
2022-10-16T20:39:15.032Z,12.20
2022-10-16T20:41:43.259Z,12.30
2022-10-16T20:44:11.351Z,12.30
2022-10-16T20:46:41.849Z,12.30
2022-10-16T20:49:27.957Z,12.50
2022-10-16T20:51:58.456Z,12.70
2022-10-16T20:54:26.565Z,12.90
2022-10-16T20:56:54.573Z,13.10
2022-10-16T20:59:23.046Z,13.30
2022-10-16T21:01:52.949Z,13.40
2022-10-16T21:04:21.213Z,13.50
2022-10-16T21:06:49.260Z,13.50
2022-10-16T21:09:17.751Z,13.60
2022-10-16T21:11:48.579Z,13.80
2022-10-16T21:14:16.966Z,13.80
2022-10-16T21:16:45.038Z,13.90
2022-10-16T21:19:14.861Z,14.00
2022-10-16T21:21:42.880Z,14.00
2022-10-16T21:24:13.699Z,14.00
2022-10-16T21:26:44.728Z,14.10
2022-10-16T21:29:12.966Z,14.20
2022-10-16T21:31:40.960Z,14.40
2022-10-16T21:34:09.242Z,14.50
2022-10-16T21:36:40.516Z,14.50
2022-10-16T21:39:09.898Z,14.60
2022-10-16T21:41:38.415Z,14.70
2022-10-16T21:44:06.696Z,14.70
2022-10-16T21:46:35.432Z,14.70
2022-10-16T21:49:05.063Z,14.70
2022-10-16T21:51:34.104Z,14.70
2022-10-16T21:54:03.730Z,14.70
2022-10-16T21:56:31.849Z,14.70
2022-10-16T21:59:02.871Z,14.60
2022-10-16T22:01:31.171Z,14.50
2022-10-16T22:03:59.528Z,14.50
2022-10-16T22:06:29.464Z,14.40
2022-10-16T22:08:59.763Z,14.30
2022-10-16T22:11:31.507Z,14.30
2022-10-16T22:13:59.878Z,14.20
2022-10-16T22:16:28.180Z,14.10
2022-10-16T22:18:57.042Z,14.00
2022-10-16T22:21:25.352Z,14.00
2022-10-16T22:23:53.441Z,13.90
2022-10-16T22:26:21.473Z,13.90
2022-10-16T22:28:51.014Z,13.80
2022-10-16T22:31:19.191Z,13.80
2022-10-16T22:33:47.189Z,13.80
2022-10-16T22:36:15.812Z,13.70
2022-10-16T22:38:43.816Z,13.70
2022-10-16T22:41:12.820Z,13.70
2022-10-16T22:43:42.893Z,13.70
2022-10-16T22:46:13.658Z,13.70
2022-10-16T22:48:41.904Z,13.70
2022-10-16T22:51:10.355Z,13.60
2022-10-16T22:53:39.295Z,13.60
2022-10-16T22:56:07.876Z,13.60
2022-10-16T22:58:36.497Z,13.60
2022-10-16T23:01:04.916Z,13.60
2022-10-16T23:03:34.514Z,13.70
2022-10-16T23:06:04.368Z,13.80
2022-10-16T23:08:32.643Z,13.80
2022-10-16T23:11:02.340Z,13.80
2022-10-16T23:13:30.619Z,13.80
2022-10-16T23:15:58.594Z,13.80
2022-10-16T23:18:26.740Z,13.80
2022-10-16T23:20:56.240Z,13.70
2022-10-16T23:23:24.139Z,13.70
2022-10-16T23:25:52.375Z,13.70
2022-10-16T23:28:20.609Z,13.70
2022-10-16T23:30:49.006Z,13.70
2022-10-16T23:33:17.001Z,13.60
2022-10-16T23:35:45.127Z,13.60
2022-10-16T23:38:14.453Z,13.60
2022-10-16T23:40:42.490Z,13.60
2022-10-16T23:43:10.694Z,13.60
2022-10-16T23:45:38.856Z,13.60
2022-10-16T23:48:07.087Z,13.60
2022-10-16T23:50:35.193Z,13.60
2022-10-16T23:53:05.341Z,13.60
2022-10-16T23:55:38.900Z,13.60
2022-10-16T23:58:08.208Z,13.70
